Time;durP1;ratioP1;P1;durP2;ratioP2;P2;SDS_P1;SDS_P2;PMS_P1;PMS_P2;Temp;Humidity;BMP_temperature;BMP_pressure;BME280_temperature;BME280_humidity;BME280_pressure;Samples;Min_cycle;Max_cycle;Signal;HPM_P1;HPM_P2
2023/01/22 00:01:01;;;;;;;2.70;1.63;;;;;;;;;;5045969;28;20041;-45
2023/01/22 00:03:27;;;;;;;2.92;2.20;;;;;;;;;;5031753;28;20021;-47
2023/01/22 00:05:53;;;;;;;1.95;1.63;;;;;;;;;;5066785;28;20048;-45
2023/01/22 00:08:19;;;;;;;2.72;1.95;;;;;;;;;;5066749;28;20028;-45
2023/01/22 00:10:49;;;;;;;2.15;1.40;;;;;;;;;;5066788;28;20024;-46
2023/01/22 00:13:15;;;;;;;2.25;1.55;;;;;;;;;;5061278;28;20043;-49
2023/01/22 00:15:41;;;;;;;2.25;1.83;;;;;;;;;;5061554;28;20028;-46
2023/01/22 00:18:07;;;;;;;1.85;1.48;;;;;;;;;;5065699;28;20104;-45
2023/01/22 00:20:33;;;;;;;1.95;1.60;;;;;;;;;;5049965;28;20036;-46
2023/01/22 00:22:59;;;;;;;3.60;1.50;;;;;;;;;;5063341;28;20062;-46
2023/01/22 00:25:25;;;;;;;2.10;1.63;;;;;;;;;;5070159;28;20373;-45
2023/01/22 00:27:51;;;;;;;2.65;1.75;;;;;;;;;;5071035;28;20036;-45
2023/01/22 00:30:17;;;;;;;1.88;1.65;;;;;;;;;;5071412;28;20031;-45
2023/01/22 00:32:44;;;;;;;2.50;1.50;;;;;;;;;;5064017;28;20481;-50
2023/01/22 00:35:10;;;;;;;1.95;1.65;;;;;;;;;;5058990;28;20031;-46
2023/01/22 00:37:36;;;;;;;2.22;1.67;;;;;;;;;;5064305;28;20024;-46
2023/01/22 00:40:03;;;;;;;2.25;1.52;;;;;;;;;;5071432;28;20100;-46
2023/01/22 00:42:28;;;;;;;2.13;1.55;;;;;;;;;;5066515;28;20021;-45
2023/01/22 00:44:55;;;;;;;1.92;1.70;;;;;;;;;;5069256;28;20028;-47
2023/01/22 00:47:20;;;;;;;1.98;1.73;;;;;;;;;;5059992;28;20037;-45
2023/01/22 00:49:46;;;;;;;2.33;1.80;;;;;;;;;;5060092;28;20059;-46
2023/01/22 00:52:12;;;;;;;2.17;1.80;;;;;;;;;;5069933;28;20021;-45
2023/01/22 00:54:38;;;;;;;3.53;2.45;;;;;;;;;;5067872;28;20029;-46
2023/01/22 00:57:04;;;;;;;2.22;1.60;;;;;;;;;;5064548;28;20052;-45
2023/01/22 00:59:30;;;;;;;1.77;1.42;;;;;;;;;;5069881;28;20036;-46
2023/01/22 01:01:56;;;;;;;2.75;1.83;;;;;;;;;;5070470;28;20032;-47
2023/01/22 01:04:22;;;;;;;2.03;1.70;;;;;;;;;;5065073;28;20375;-45
2023/01/22 01:06:48;;;;;;;1.70;1.38;;;;;;;;;;5065176;28;20039;-45
2023/01/22 01:09:14;;;;;;;1.67;1.42;;;;;;;;;;5069775;28;20381;-45
2023/01/22 01:11:40;;;;;;;2.67;1.60;;;;;;;;;;5056412;28;20109;-45
2023/01/22 01:14:06;;;;;;;2.35;1.60;;;;;;;;;;5064082;28;20025;-45
2023/01/22 01:16:32;;;;;;;1.45;1.20;;;;;;;;;;5063322;28;20031;-46
2023/01/22 01:18:59;;;;;;;2.35;1.63;;;;;;;;;;5070882;28;20469;-45
2023/01/22 01:21:25;;;;;;;1.92;1.38;;;;;;;;;;5066546;28;20033;-45
2023/01/22 01:23:51;;;;;;;1.63;1.48;;;;;;;;;;5064632;28;20052;-48
2023/01/22 01:26:17;;;;;;;1.60;1.23;;;;;;;;;;5066042;28;20029;-46
2023/01/22 01:28:44;;;;;;;2.40;1.77;;;;;;;;;;5069817;28;20395;-45
2023/01/22 01:31:11;;;;;;;1.92;1.65;;;;;;;;;;5054275;28;20038;-45
2023/01/22 01:33:37;;;;;;;1.67;1.38;;;;;;;;;;5068383;28;20359;-46
2023/01/22 01:36:05;;;;;;;2.53;1.70;;;;;;;;;;5070463;28;20090;-47
2023/01/22 01:38:31;;;;;;;1.70;1.40;;;;;;;;;;5063674;28;20078;-45
2023/01/22 01:40:57;;;;;;;1.65;1.45;;;;;;;;;;5070318;28;20362;-48
2023/01/22 01:43:23;;;;;;;1.50;1.25;;;;;;;;;;5067812;28;20024;-45
2023/01/22 01:45:49;;;;;;;2.03;1.40;;;;;;;;;;5070200;28;20043;-45
2023/01/22 01:48:21;;;;;;;1.98;1.42;;;;;;;;;;5070299;28;20023;-44
2023/01/22 01:50:48;;;;;;;;;;;;;;;;;;5068031;28;20024;-45
2023/01/22 01:53:14;;;;;;;1.10;0.98;;;;;;;;;;5066099;28;20003;-45
2023/01/22 01:55:40;;;;;;;1.80;1.48;;;;;;;;;;5069048;28;20429;-45
2023/01/22 01:58:11;;;;;;;1.55;1.25;;;;;;;;;;5066632;28;20078;-45
2023/01/22 02:00:38;;;;;;;2.10;1.40;;;;;;;;;;5056045;28;20473;-46
2023/01/22 02:03:05;;;;;;;2.60;1.63;;;;;;;;;;5065775;28;20029;-47
2023/01/22 02:05:33;;;;;;;1.70;1.38;;;;;;;;;;5068919;28;20099;-46
2023/01/22 02:07:59;;;;;;;1.88;1.50;;;;;;;;;;5069543;28;20338;-46
2023/01/22 02:10:25;;;;;;;1.52;1.30;;;;;;;;;;5068078;28;20381;-46
2023/01/22 02:12:54;;;;;;;2.65;1.80;;;;;;;;;;5069597;28;20025;-45
2023/01/22 02:15:20;;;;;;;2.30;1.92;;;;;;;;;;5062556;28;20024;-49
2023/01/22 02:17:47;;;;;;;4.20;1.92;;;;;;;;;;5068226;28;20033;-45
2023/01/22 02:20:13;;;;;;;1.15;0.90;;;;;;;;;;5060673;28;20025;-45
2023/01/22 02:22:39;;;;;;;1.70;1.40;;;;;;;;;;5073524;28;20051;-46
2023/01/22 02:25:05;;;;;;;1.55;1.25;;;;;;;;;;5073864;28;20096;-45
2023/01/22 02:27:31;;;;;;;2.05;1.25;;;;;;;;;;5070807;28;20044;-45
2023/01/22 02:29:57;;;;;;;1.55;1.25;;;;;;;;;;5070438;28;20390;-45
2023/01/22 02:32:23;;;;;;;2.13;1.42;;;;;;;;;;5054188;28;20090;-45
2023/01/22 02:34:49;;;;;;;2.05;1.50;;;;;;;;;;5065024;28;20078;-45
2023/01/22 02:37:15;;;;;;;1.60;1.20;;;;;;;;;;5067258;28;20466;-45
2023/01/22 02:39:41;;;;;;;1.67;1.10;;;;;;;;;;5064987;28;20021;-46
2023/01/22 02:42:08;;;;;;;1.60;1.40;;;;;;;;;;5073954;28;20024;-46
2023/01/22 02:44:34;;;;;;;1.48;1.20;;;;;;;;;;5065308;28;20112;-45
2023/01/22 02:47:00;;;;;;;1.75;1.00;;;;;;;;;;5070515;28;20060;-45
2023/01/22 02:49:26;;;;;;;1.50;1.38;;;;;;;;;;5063011;28;20070;-45
2023/01/22 02:51:52;;;;;;;2.97;1.38;;;;;;;;;;5073459;28;20024;-45
2023/01/22 02:54:18;;;;;;;1.75;1.20;;;;;;;;;;5072771;28;20024;-45
2023/01/22 02:56:44;;;;;;;1.92;1.42;;;;;;;;;;5063855;28;20101;-45
2023/01/22 02:59:10;;;;;;;2.05;1.83;;;;;;;;;;5065061;28;20025;-45
2023/01/22 03:01:36;;;;;;;1.25;0.90;;;;;;;;;;5071755;28;20020;-45
2023/01/22 03:04:10;;;;;;;2.20;1.60;;;;;;;;;;5067548;28;20480;-45
2023/01/22 03:06:37;;;;;;;2.08;1.20;;;;;;;;;;5067703;28;20031;-46
2023/01/22 03:09:03;;;;;;;1.55;1.30;;;;;;;;;;5069121;28;20104;-47
2023/01/22 03:11:30;;;;;;;1.67;1.27;;;;;;;;;;5072388;28;20165;-45
2023/01/22 03:22:11;;;;;;;1.40;1.13;;;;;;;;;;5064609;28;20138;-45
2023/01/22 03:24:37;;;;;;;1.55;1.20;;;;;;;;;;5065013;28;20029;-45
2023/01/22 03:27:03;;;;;;;2.00;1.40;;;;;;;;;;5071400;28;20107;-45
2023/01/22 03:29:29;;;;;;;1.80;1.58;;;;;;;;;;5071484;28;20071;-45
2023/01/22 03:31:55;;;;;;;1.85;1.40;;;;;;;;;;5063179;28;20025;-45
2023/01/22 03:34:24;;;;;;;2.55;1.50;;;;;;;;;;5063875;28;20036;-45
2023/01/22 03:36:50;;;;;;;1.27;1.00;;;;;;;;;;5070938;28;20028;-45
2023/01/22 03:39:16;;;;;;;1.75;1.30;;;;;;;;;;5058996;28;20075;-45
2023/01/22 03:41:42;;;;;;;1.33;1.23;;;;;;;;;;5068377;28;20032;-45
2023/01/22 03:44:10;;;;;;;1.35;1.10;;;;;;;;;;5071986;28;20095;-45
2023/01/22 03:46:36;;;;;;;1.55;1.05;;;;;;;;;;5070376;28;20381;-47
2023/01/22 03:49:03;;;;;;;1.20;1.00;;;;;;;;;;5072114;28;20075;-45
2023/01/22 03:51:29;;;;;;;1.75;1.20;;;;;;;;;;5061868;28;20028;-45
2023/01/22 03:53:55;;;;;;;1.80;1.45;;;;;;;;;;5066465;28;20021;-46
2023/01/22 03:56:22;;;;;;;1.95;1.35;;;;;;;;;;5069227;28;20029;-45
2023/01/22 03:58:48;;;;;;;1.75;1.13;;;;;;;;;;5061048;28;20033;-47
2023/01/22 04:01:21;;;;;;;1.40;1.15;;;;;;;;;;5068931;28;20028;-45
2023/01/22 04:03:47;;;;;;;1.30;1.00;;;;;;;;;;5063263;28;20019;-46
2023/01/22 04:06:14;;;;;;;1.17;1.08;;;;;;;;;;5070108;28;20028;-46
2023/01/22 04:08:41;;;;;;;1.58;1.25;;;;;;;;;;5070729;28;20040;-47
2023/01/22 04:11:07;;;;;;;1.40;1.10;;;;;;;;;;5063553;28;20071;-46
2023/01/22 04:13:34;;;;;;;1.75;1.23;;;;;;;;;;5066811;28;20032;-46
2023/01/22 04:16:00;;;;;;;2.17;1.38;;;;;;;;;;5063077;28;20037;-49
2023/01/22 04:18:26;;;;;;;1.25;0.98;;;;;;;;;;5071260;28;20454;-47
2023/01/22 04:20:52;;;;;;;1.65;1.20;;;;;;;;;;5061786;28;20028;-46
2023/01/22 04:23:19;;;;;;;1.25;1.10;;;;;;;;;;5071207;28;20133;-48
2023/01/22 04:25:45;;;;;;;1.95;1.02;;;;;;;;;;5063749;28;20085;-50
2023/01/22 04:28:13;;;;;;;1.85;1.60;;;;;;;;;;5068532;28;20039;-49
2023/01/22 04:30:39;;;;;;;1.00;0.90;;;;;;;;;;5067750;28;20099;-47
2023/01/22 04:33:05;;;;;;;1.67;0.98;;;;;;;;;;5071008;28;20041;-47
2023/01/22 04:35:32;;;;;;;1.67;1.10;;;;;;;;;;5068578;28;20028;-48
2023/01/22 04:37:58;;;;;;;1.15;0.85;;;;;;;;;;5071019;28;20078;-47
2023/01/22 04:40:24;;;;;;;1.63;1.20;;;;;;;;;;5062443;28;20412;-45
2023/01/22 04:42:50;;;;;;;1.58;1.15;;;;;;;;;;5070489;28;20040;-46
2023/01/22 04:45:17;;;;;;;1.05;0.90;;;;;;;;;;5066843;28;20096;-47
2023/01/22 04:47:44;;;;;;;1.30;1.10;;;;;;;;;;5060545;28;20211;-46
2023/01/22 04:50:16;;;;;;;1.10;1.00;;;;;;;;;;5059853;28;20025;-49
2023/01/22 04:52:42;;;;;;;1.58;1.15;;;;;;;;;;5069180;28;20540;-47
2023/01/22 04:55:08;;;;;;;1.55;1.30;;;;;;;;;;5064423;28;20047;-48
2023/01/22 04:57:34;;;;;;;1.35;1.15;;;;;;;;;;5069255;28;20044;-45
2023/01/22 05:00:00;;;;;;;1.30;1.20;;;;;;;;;;5071054;28;20594;-50
2023/01/22 05:02:26;;;;;;;1.13;1.02;;;;;;;;;;5062020;28;20103;-45
2023/01/22 05:04:52;;;;;;;1.40;1.00;;;;;;;;;;5053551;28;20045;-45
2023/01/22 05:07:18;;;;;;;1.50;1.13;;;;;;;;;;5054261;28;20024;-46
2023/01/22 05:09:44;;;;;;;1.00;0.90;;;;;;;;;;5062874;28;20024;-49
2023/01/22 05:12:10;;;;;;;1.25;1.13;;;;;;;;;;5071373;28;20027;-50
2023/01/22 05:14:36;;;;;;;2.13;1.23;;;;;;;;;;5064912;28;20107;-45
2023/01/22 05:17:02;;;;;;;2.75;1.20;;;;;;;;;;5057877;28;20036;-46
2023/01/22 05:19:28;;;;;;;1.42;1.02;;;;;;;;;;5069970;28;20096;-50
2023/01/22 05:21:54;;;;;;;2.30;1.35;;;;;;;;;;5060804;28;20027;-47
2023/01/22 05:24:20;;;;;;;1.27;1.17;;;;;;;;;;5060886;28;20036;-45
2023/01/22 05:26:46;;;;;;;1.10;0.90;;;;;;;;;;5067785;28;20473;-45
2023/01/22 05:29:12;;;;;;;2.10;1.45;;;;;;;;;;5052951;28;20067;-48
2023/01/22 05:31:38;;;;;;;0.98;0.85;;;;;;;;;;5069671;28;20029;-46
2023/01/22 05:34:04;;;;;;;1.17;0.85;;;;;;;;;;5055860;28;20025;-48
2023/01/22 05:36:30;;;;;;;2.38;1.10;;;;;;;;;;5065444;28;20040;-46
2023/01/22 05:38:56;;;;;;;1.00;0.90;;;;;;;;;;5067354;28;20040;-47
2023/01/22 05:41:22;;;;;;;1.52;1.00;;;;;;;;;;5069443;28;20024;-45
2023/01/22 05:43:48;;;;;;;1.00;0.90;;;;;;;;;;5068417;28;20024;-47
2023/01/22 05:46:14;;;;;;;1.15;1.00;;;;;;;;;;5065890;28;20028;-47
2023/01/22 05:48:40;;;;;;;3.03;0.70;;;;;;;;;;5060318;28;20389;-45
2023/01/22 05:51:07;;;;;;;1.30;1.00;;;;;;;;;;5070703;28;20031;-45
2023/01/22 05:53:36;;;;;;;1.85;0.98;;;;;;;;;;5063402;28;20025;-46
2023/01/22 05:56:03;;;;;;;1.25;0.77;;;;;;;;;;5072554;28;20025;-50
2023/01/22 05:58:30;;;;;;;2.08;1.20;;;;;;;;;;5071477;28;20029;-45
2023/01/22 06:00:56;;;;;;;1.02;0.90;;;;;;;;;;5074918;28;20082;-46
2023/01/22 06:03:22;;;;;;;0.93;0.80;;;;;;;;;;5065607;28;20104;-45
2023/01/22 06:05:56;;;;;;;1.17;1.02;;;;;;;;;;5071124;28;20143;-45
2023/01/22 06:08:22;;;;;;;0.95;0.80;;;;;;;;;;5074548;28;20032;-45
2023/01/22 06:10:48;;;;;;;1.30;0.95;;;;;;;;;;5064588;28;20445;-48
2023/01/22 06:13:14;;;;;;;1.30;0.95;;;;;;;;;;5070805;28;20042;-46
2023/01/22 06:15:42;;;;;;;1.25;0.90;;;;;;;;;;5071373;28;20033;-46
2023/01/22 06:18:09;;;;;;;1.52;0.95;;;;;;;;;;5074312;28;20051;-45
2023/01/22 06:20:35;;;;;;;0.98;0.80;;;;;;;;;;5072902;28;20381;-46
2023/01/22 06:23:01;;;;;;;1.00;0.88;;;;;;;;;;5072673;28;20036;-47
2023/01/22 06:25:27;;;;;;;1.67;1.27;;;;;;;;;;5071405;28;20458;-45
2023/01/22 06:27:53;;;;;;;2.60;0.95;;;;;;;;;;5065078;28;20033;-47
2023/01/22 06:30:19;;;;;;;1.00;0.88;;;;;;;;;;5072363;28;20135;-45
2023/01/22 06:32:45;;;;;;;1.92;1.25;;;;;;;;;;5041568;28;20253;-45
2023/01/22 06:35:11;;;;;;;1.42;0.90;;;;;;;;;;5071886;28;20032;-47
2023/01/22 06:37:37;;;;;;;1.08;0.98;;;;;;;;;;5072368;28;20029;-46
2023/01/22 06:40:03;;;;;;;0.88;0.73;;;;;;;;;;5069231;28;20044;-45
2023/01/22 06:42:29;;;;;;;0.93;0.73;;;;;;;;;;5069033;28;20032;-46
2023/01/22 06:44:55;;;;;;;2.55;1.10;;;;;;;;;;5068533;28;20028;-49
2023/01/22 06:47:21;;;;;;;1.48;1.00;;;;;;;;;;5067381;28;20370;-48
2023/01/22 06:49:47;;;;;;;1.90;0.80;;;;;;;;;;5068119;28;20047;-44
2023/01/22 06:52:13;;;;;;;1.30;0.85;;;;;;;;;;5069706;28;20096;-46
2023/01/22 06:54:39;;;;;;;1.60;0.93;;;;;;;;;;5066469;28;20024;-47
2023/01/22 06:57:05;;;;;;;1.27;1.10;;;;;;;;;;5068870;28;20039;-45
2023/01/22 06:59:31;;;;;;;1.48;1.02;;;;;;;;;;5066974;28;20410;-47
2023/01/22 07:01:56;;;;;;;1.20;1.10;;;;;;;;;;5071537;28;20115;-46
2023/01/22 07:04:22;;;;;;;1.67;1.42;;;;;;;;;;5067363;28;20057;-45
2023/01/22 07:06:48;;;;;;;1.63;1.10;;;;;;;;;;5049965;28;20029;-46
2023/01/22 07:09:14;;;;;;;1.30;0.95;;;;;;;;;;5054004;28;20033;-46
2023/01/22 07:11:40;;;;;;;1.13;0.90;;;;;;;;;;5055481;28;20026;-47
2023/01/22 07:14:06;;;;;;;1.48;1.20;;;;;;;;;;5057304;28;20025;-48
2023/01/22 07:16:32;;;;;;;1.25;1.00;;;;;;;;;;5062025;28;20033;-48
2023/01/22 07:18:59;;;;;;;4.78;1.17;;;;;;;;;;5052689;28;20017;-45
2023/01/22 07:21:26;;;;;;;3.20;0.90;;;;;;;;;;5049881;28;20473;-44
2023/01/22 07:23:52;;;;;;;1.55;1.17;;;;;;;;;;5045277;28;20530;-43
2023/01/22 07:26:18;;;;;;;2.13;1.15;;;;;;;;;;5054895;28;20079;-44
2023/01/22 07:28:44;;;;;;;1.75;1.05;;;;;;;;;;5058743;28;20052;-44
2023/01/22 07:31:11;;;;;;;1.75;1.13;;;;;;;;;;5053238;28;20048;-45
2023/01/22 07:33:37;;;;;;;2.50;1.30;;;;;;;;;;5058309;28;20035;-46
2023/01/22 07:36:03;;;;;;;1.60;1.25;;;;;;;;;;5051007;28;20068;-44
2023/01/22 07:38:29;;;;;;;1.65;1.00;;;;;;;;;;5055938;28;20502;-45
2023/01/22 07:41:13;;;;;;;1.23;1.13;;;;;;;;;;5046992;28;20079;-45
2023/01/22 07:43:39;;;;;;;2.30;1.30;;;;;;;;;;5053930;28;20025;-43
2023/01/22 07:46:06;;;;;;;1.55;1.05;;;;;;;;;;5051405;28;20040;-44
2023/01/22 07:48:32;;;;;;;2.47;1.15;;;;;;;;;;5049831;28;20028;-45
2023/01/22 07:51:01;;;;;;;1.10;0.93;;;;;;;;;;5053769;28;20063;-44
2023/01/22 07:53:28;;;;;;;2.88;1.25;;;;;;;;;;5054777;28;20115;-46
2023/01/22 07:55:54;;;;;;;2.38;1.40;;;;;;;;;;5048319;28;20045;-48
2023/01/22 07:58:20;;;;;;;1.17;0.80;;;;;;;;;;5050824;28;21326;-45
2023/01/22 08:00:46;;;;;;;1.65;1.10;;;;;;;;;;5047952;28;20086;-44
2023/01/22 08:03:13;;;;;;;2.22;1.23;;;;;;;;;;5057592;28;20041;-47
2023/01/22 08:05:40;;;;;;;2.83;1.77;;;;;;;;;;5050585;28;20483;-45
2023/01/22 08:08:06;;;;;;;1.17;1.00;;;;;;;;;;5051910;28;20029;-44
2023/01/22 08:10:32;;;;;;;2.17;1.05;;;;;;;;;;5051923;28;20393;-44
2023/01/22 08:12:58;;;;;;;2.47;1.20;;;;;;;;;;5034664;28;20020;-47
2023/01/22 08:15:24;;;;;;;2.20;1.27;;;;;;;;;;5050954;28;20632;-44
2023/01/22 08:17:50;;;;;;;2.20;1.13;;;;;;;;;;5052809;28;20013;-45
2023/01/22 08:20:16;;;;;;;3.15;1.27;;;;;;;;;;5039000;28;20035;-45
2023/01/22 08:22:44;;;;;;;3.47;1.20;;;;;;;;;;5051690;28;20113;-44
2023/01/22 08:25:10;;;;;;;8.23;1.88;;;;;;;;;;5051432;28;20032;-44
2023/01/22 08:27:36;;;;;;;2.03;1.35;;;;;;;;;;5053094;28;20060;-45
2023/01/22 08:30:03;;;;;;;4.70;1.13;;;;;;;;;;5051935;28;20491;-46
2023/01/22 08:32:29;;;;;;;8.00;1.30;;;;;;;;;;5055966;28;20404;-45
2023/01/22 08:34:55;;;;;;;3.03;1.42;;;;;;;;;;5055016;28;20029;-47
2023/01/22 08:37:21;;;;;;;8.73;7.07;;;;;;;;;;5057660;28;20028;-45
2023/01/22 08:39:47;;;;;;;10.70;6.97;;;;;;;;;;5053511;28;20466;-45
2023/01/22 08:42:13;;;;;;;10.25;5.57;;;;;;;;;;5052370;28;20036;-46
2023/01/22 08:44:39;;;;;;;7.70;6.03;;;;;;;;;;5050707;28;20508;-48
2023/01/22 08:47:05;;;;;;;9.70;5.05;;;;;;;;;;5051426;28;20049;-46
2023/01/22 08:49:31;;;;;;;6.75;3.55;;;;;;;;;;5051712;28;20134;-45
2023/01/22 08:51:57;;;;;;;5.20;3.75;;;;;;;;;;5059313;28;20028;-46
2023/01/22 08:54:25;;;;;;;5.47;4.00;;;;;;;;;;5046213;28;20020;-45
2023/01/22 08:56:51;;;;;;;3.47;2.80;;;;;;;;;;5055679;28;20512;-45
2023/01/22 08:59:17;;;;;;;11.85;3.38;;;;;;;;;;5052802;28;20058;-47
2023/01/22 09:01:42;;;;;;;3.00;2.17;;;;;;;;;;5056823;28;20120;-45
2023/01/22 09:04:09;;;;;;;2.58;2.08;;;;;;;;;;5051426;28;20052;-45
2023/01/22 09:06:36;;;;;;;2.30;1.75;;;;;;;;;;5065105;28;20127;-46
2023/01/22 09:09:02;;;;;;;1.80;1.63;;;;;;;;;;5068876;28;20067;-47
2023/01/22 09:11:28;;;;;;;3.00;2.00;;;;;;;;;;5061821;28;20044;-45
2023/01/22 09:13:57;;;;;;;3.05;2.35;;;;;;;;;;5062759;28;20044;-46
2023/01/22 09:16:24;;;;;;;3.72;1.58;;;;;;;;;;5065188;28;20048;-44
2023/01/22 09:18:50;;;;;;;2.38;1.63;;;;;;;;;;5067114;28;20027;-48
2023/01/22 09:21:16;;;;;;;2.50;1.75;;;;;;;;;;5062050;28;20161;-46
2023/01/22 09:23:42;;;;;;;1.58;1.35;;;;;;;;;;5063547;28;20252;-47
2023/01/22 09:26:08;;;;;;;5.32;2.85;;;;;;;;;;5064380;28;20381;-48
2023/01/22 09:28:34;;;;;;;5.80;2.15;;;;;;;;;;5066006;28;20033;-47
2023/01/22 09:31:00;;;;;;;3.90;2.05;;;;;;;;;;5065923;28;20438;-45
2023/01/22 09:33:26;;;;;;;2.33;1.70;;;;;;;;;;5063579;28;20032;-46
2023/01/22 09:35:52;;;;;;;3.47;1.98;;;;;;;;;;5060979;28;20037;-47
2023/01/22 09:38:18;;;;;;;4.43;1.58;;;;;;;;;;5065131;28;20048;-46
2023/01/22 09:40:47;;;;;;;3.10;1.30;;;;;;;;;;5063336;28;20035;-46
2023/01/22 09:43:28;;;;;;;2.15;1.75;;;;;;;;;;5066619;28;20033;-46
2023/01/22 09:45:56;;;;;;;2.97;1.47;;;;;;;;;;5061332;28;20142;-46
2023/01/22 09:48:22;;;;;;;2.70;1.35;;;;;;;;;;5070371;28;20362;-46
2023/01/22 09:50:49;;;;;;;1.60;1.40;;;;;;;;;;5070281;28;20025;-46
2023/01/22 09:53:17;;;;;;;1.50;1.30;;;;;;;;;;5064907;28;20180;-46
2023/01/22 09:55:47;;;;;;;2.35;1.58;;;;;;;;;;5066716;28;20024;-46
2023/01/22 09:58:14;;;;;;;2.95;1.23;;;;;;;;;;5067637;28;20513;-46
2023/01/22 10:00:43;;;;;;;1.45;1.00;;;;;;;;;;5065879;28;20052;-46
2023/01/22 10:03:18;;;;;;;2.85;1.45;;;;;;;;;;5067719;28;20032;-47
2023/01/22 10:05:48;;;;;;;1.85;1.20;;;;;;;;;;5065627;28;20116;-47
2023/01/22 10:08:19;;;;;;;2.13;1.02;;;;;;;;;;5069556;28;20481;-48
2023/01/22 10:10:45;;;;;;;1.37;1.23;;;;;;;;;;5060353;28;20055;-49
2023/01/22 10:13:17;;;;;;;2.67;1.77;;;;;;;;;;5068325;28;20048;-48
2023/01/22 10:15:43;;;;;;;2.38;1.40;;;;;;;;;;5062223;28;20036;-48
2023/01/22 10:18:14;;;;;;;3.40;1.10;;;;;;;;;;5066970;28;20086;-46
2023/01/22 10:20:40;;;;;;;4.63;1.20;;;;;;;;;;5066641;28;20028;-46
2023/01/22 10:23:14;;;;;;;1.92;1.10;;;;;;;;;;5066556;28;20017;-48
2023/01/22 10:25:40;;;;;;;1.98;1.30;;;;;;;;;;5067925;28;20025;-50
2023/01/22 10:28:06;;;;;;;2.30;1.23;;;;;;;;;;5056538;28;20047;-48
2023/01/22 10:30:34;;;;;;;2.38;1.60;;;;;;;;;;5063568;28;20051;-47
2023/01/22 10:33:01;;;;;;;2.33;1.20;;;;;;;;;;5067163;28;20023;-48
2023/01/22 10:35:29;;;;;;;7.07;1.30;;;;;;;;;;5065296;28;20020;-48
2023/01/22 10:37:56;;;;;;;1.70;1.30;;;;;;;;;;5064771;28;20424;-48
2023/01/22 10:40:22;;;;;;;2.65;1.08;;;;;;;;;;5059055;28;20028;-48
2023/01/22 10:42:59;;;;;;;1.98;1.75;;;;;;;;;;5067601;28;20047;-49
2023/01/22 10:45:25;;;;;;;2.63;1.38;;;;;;;;;;5066421;28;20025;-46
2023/01/22 10:47:51;;;;;;;3.03;1.25;;;;;;;;;;5071435;28;20035;-46
2023/01/22 10:50:18;;;;;;;2.47;1.52;;;;;;;;;;5072141;28;20478;-51
2023/01/22 10:52:48;;;;;;;2.35;1.27;;;;;;;;;;5069118;28;20574;-49
2023/01/22 10:55:20;;;;;;;4.63;1.60;;;;;;;;;;5072134;28;20030;-48
2023/01/22 10:57:49;;;;;;;2.63;1.85;;;;;;;;;;5066683;28;20039;-47
2023/01/22 11:00:15;;;;;;;2.05;1.48;;;;;;;;;;5073120;28;20020;-47
2023/01/22 11:02:45;;;;;;;2.88;1.90;;;;;;;;;;5062513;28;20363;-47
2023/01/22 11:05:16;;;;;;;3.03;1.65;;;;;;;;;;5062645;28;20044;-49
2023/01/22 11:07:43;;;;;;;3.30;1.80;;;;;;;;;;5071135;28;20072;-47
2023/01/22 11:10:16;;;;;;;4.88;2.10;;;;;;;;;;5072581;28;20042;-48
2023/01/22 11:12:44;;;;;;;5.03;2.20;;;;;;;;;;5065923;28;20035;-47
2023/01/22 11:15:20;;;;;;;4.07;1.80;;;;;;;;;;5072595;28;20078;-46
2023/01/22 11:17:53;;;;;;;2.85;1.58;;;;;;;;;;5055188;28;20067;-50
2023/01/22 11:20:22;;;;;;;3.10;1.88;;;;;;;;;;5070909;28;20059;-48
2023/01/22 11:22:57;;;;;;;1.90;1.38;;;;;;;;;;5065821;28;20104;-49
2023/01/22 11:25:25;;;;;;;5.90;1.63;;;;;;;;;;5070837;28;20020;-44
2023/01/22 11:28:01;;;;;;;2.90;1.88;;;;;;;;;;5071032;28;20032;-46
2023/01/22 11:30:42;;;;;;;1.52;1.13;;;;;;;;;;5063783;28;20469;-47
2023/01/22 11:33:16;;;;;;;3.20;1.23;;;;;;;;;;5066316;28;20024;-46
2023/01/22 11:35:49;;;;;;;3.17;1.55;;;;;;;;;;5054637;28;20312;-46
2023/01/22 11:38:15;;;;;;;3.88;1.52;;;;;;;;;;5068268;28;20159;-49
2023/01/22 11:40:53;;;;;;;3.08;1.42;;;;;;;;;;5069371;28;20064;-44
2023/01/22 11:43:31;;;;;;;2.58;1.20;;;;;;;;;;5072566;28;20519;-46
2023/01/22 11:46:01;;;;;;;5.57;2.08;;;;;;;;;;5071940;28;20035;-48
2023/01/22 11:48:45;;;;;;;2.22;1.55;;;;;;;;;;5070050;28;20101;-48
2023/01/22 11:51:15;;;;;;;1.83;1.10;;;;;;;;;;5056622;28;20102;-46
2023/01/22 11:53:53;;;;;;;2.40;1.55;;;;;;;;;;5070183;28;20033;-46
2023/01/22 11:56:37;;;;;;;3.53;1.60;;;;;;;;;;5053730;28;20381;-46
2023/01/22 11:59:24;;;;;;;2.05;1.40;;;;;;;;;;5065904;28;20035;-47
2023/01/22 12:01:53;;;;;;;3.60;1.48;;;;;;;;;;5071071;28;20032;-46
2023/01/22 12:04:31;;;;;;;3.10;1.30;;;;;;;;;;5071141;28;20047;-48
2023/01/22 12:07:16;;;;;;;3.63;1.33;;;;;;;;;;5060741;28;20048;-46
2023/01/22 12:09:45;;;;;;;1.40;1.20;;;;;;;;;;5062295;28;20367;-50
2023/01/22 12:12:11;;;;;;;3.78;1.48;;;;;;;;;;5067309;28;20376;-46
2023/01/22 12:14:50;;;;;;;3.65;1.20;;;;;;;;;;5068569;28;20099;-46
2023/01/22 12:17:19;;;;;;;2.30;1.27;;;;;;;;;;5072222;28;20473;-47
2023/01/22 12:19:54;;;;;;;1.52;0.90;;;;;;;;;;5059667;28;20021;-48
2023/01/22 12:22:27;;;;;;;3.47;1.50;;;;;;;;;;5071571;28;20024;-45
2023/01/22 12:24:57;;;;;;;2.90;1.20;;;;;;;;;;5061688;28;20127;-48
2023/01/22 12:27:35;;;;;;;2.97;1.60;;;;;;;;;;5059754;28;20111;-48
2023/01/22 12:30:00;;;;;;;2.40;1.42;;;;;;;;;;5071658;28;20366;-46
2023/01/22 12:32:29;;;;;;;2.13;1.52;;;;;;;;;;5070711;28;20031;-45
2023/01/22 12:34:55;;;;;;;2.90;1.40;;;;;;;;;;5062434;28;20444;-46
2023/01/22 12:37:23;;;;;;;2.72;1.40;;;;;;;;;;5070060;28;20120;-46
2023/01/22 12:40:04;;;;;;;6.53;1.25;;;;;;;;;;5065855;28;20085;-44
2023/01/22 12:42:35;;;;;;;2.17;1.10;;;;;;;;;;5062399;28;20021;-46
2023/01/22 12:45:28;;;;;;;1.90;1.60;;;;;;;;;;5059221;28;20263;-45
2023/01/22 12:47:58;;;;;;;2.78;1.25;;;;;;;;;;5059767;28;20037;-45
2023/01/22 12:50:25;;;;;;;2.97;1.27;;;;;;;;;;5069174;28;20508;-44
2023/01/22 12:53:02;;;;;;;4.07;1.42;;;;;;;;;;5063008;28;20025;-45
2023/01/22 12:55:41;;;;;;;2.92;1.67;;;;;;;;;;5063758;28;20025;-45
2023/01/22 12:58:17;;;;;;;4.75;1.67;;;;;;;;;;5069143;28;20052;-44
2023/01/22 13:00:43;;;;;;;3.88;2.05;;;;;;;;;;5065951;28;20033;-45
2023/01/22 13:03:27;;;;;;;2.65;1.27;;;;;;;;;;5065864;28;20024;-46
2023/01/22 13:05:54;;;;;;;5.55;1.55;;;;;;;;;;5058538;28;20044;-45
2023/01/22 13:08:19;;;;;;;5.35;1.65;;;;;;;;;;5071499;28;20108;-45
2023/01/22 13:11:18;;;;;;;3.35;1.27;;;;;;;;;;5069529;28;20135;-45
2023/01/22 13:13:47;;;;;;;4.38;1.90;;;;;;;;;;5016276;28;20593;-44
2023/01/22 13:16:19;;;;;;;3.03;2.05;;;;;;;;;;5065014;28;20356;-46
2023/01/22 13:18:47;;;;;;;3.35;1.65;;;;;;;;;;5059619;28;20032;-45
2023/01/22 13:21:16;;;;;;;4.97;1.63;;;;;;;;;;5069570;28;20433;-44
2023/01/22 13:23:46;;;;;;;5.30;1.63;;;;;;;;;;5058962;28;20131;-45
2023/01/22 13:26:25;;;;;;;4.18;1.58;;;;;;;;;;5070707;28;20024;-45
2023/01/22 13:29:05;;;;;;;9.30;2.13;;;;;;;;;;5070494;28;20024;-45
2023/01/22 13:31:33;;;;;;;7.32;1.73;;;;;;;;;;5062542;28;20025;-46
2023/01/22 13:34:07;;;;;;;4.75;2.15;;;;;;;;;;5063138;28;20025;-45
2023/01/22 13:36:33;;;;;;;2.70;1.70;;;;;;;;;;5070320;28;20047;-45
2023/01/22 13:38:59;;;;;;;4.70;1.70;;;;;;;;;;5069774;28;20029;-46
2023/01/22 13:41:36;;;;;;;6.05;1.42;;;;;;;;;;5068734;28;20493;-44
2023/01/22 13:44:03;;;;;;;6.80;2.20;;;;;;;;;;5066292;28;20028;-46
2023/01/22 13:46:29;;;;;;;2.58;1.85;;;;;;;;;;5056579;28;20039;-46
2023/01/22 13:49:02;;;;;;;6.65;2.08;;;;;;;;;;5069205;28;20441;-46
2023/01/22 13:51:29;;;;;;;4.85;1.50;;;;;;;;;;5060778;28;20441;-44
2023/01/22 13:53:55;;;;;;;3.38;1.50;;;;;;;;;;5066966;28;20090;-45
2023/01/22 13:56:25;;;;;;;4.78;1.60;;;;;;;;;;5070609;28;20116;-46
2023/01/22 13:58:51;;;;;;;3.50;1.60;;;;;;;;;;5070378;28;20017;-46
2023/01/22 14:01:31;;;;;;;3.13;1.40;;;;;;;;;;5058926;28;20025;-47
2023/01/22 14:04:01;;;;;;;2.50;1.42;;;;;;;;;;5063687;28;20112;-46
2023/01/22 14:06:28;;;;;;;4.53;1.92;;;;;;;;;;5067506;28;20032;-45
2023/01/22 14:08:55;;;;;;;4.38;1.45;;;;;;;;;;5063603;28;20115;-45
2023/01/22 14:11:21;;;;;;;4.75;2.05;;;;;;;;;;5070073;28;20036;-46
2023/01/22 14:13:49;;;;;;;4.43;1.92;;;;;;;;;;5068963;28;20147;-49
2023/01/22 14:16:15;;;;;;;2.13;1.50;;;;;;;;;;5072109;28;20039;-47
2023/01/22 14:18:43;;;;;;;3.33;1.50;;;;;;;;;;5071967;28;20047;-48
2023/01/22 14:21:10;;;;;;;3.35;1.50;;;;;;;;;;5072467;28;20025;-49
2023/01/22 14:23:36;;;;;;;2.65;1.27;;;;;;;;;;5069092;28;20017;-46
2023/01/22 14:26:04;;;;;;;3.60;1.50;;;;;;;;;;5072144;28;20030;-46
2023/01/22 14:28:30;;;;;;;5.32;1.52;;;;;;;;;;5071716;28;20029;-45
2023/01/22 14:30:57;;;;;;;3.55;1.70;;;;;;;;;;5070211;28;20036;-47
2023/01/22 14:33:24;;;;;;;7.22;2.47;;;;;;;;;;5073879;28;20405;-44
2023/01/22 14:35:51;;;;;;;2.30;1.25;;;;;;;;;;5072882;28;20465;-48
2023/01/22 14:38:17;;;;;;;3.33;1.48;;;;;;;;;;5066787;28;20351;-45
2023/01/22 14:40:44;;;;;;;2.25;1.33;;;;;;;;;;5063833;28;20111;-46
2023/01/22 14:43:10;;;;;;;2.80;1.35;;;;;;;;;;5074092;28;20100;-45
2023/01/22 14:45:36;;;;;;;2.65;1.45;;;;;;;;;;5072194;28;20065;-46
2023/01/22 14:48:03;;;;;;;3.70;1.50;;;;;;;;;;5072238;28;20036;-46
2023/01/22 14:50:29;;;;;;;3.97;1.45;;;;;;;;;;5064257;28;20025;-46
2023/01/22 14:52:55;;;;;;;2.15;1.40;;;;;;;;;;5073854;28;20031;-48
2023/01/22 14:55:21;;;;;;;2.20;1.27;;;;;;;;;;5072961;28;20024;-47